Troy, NY (12180)

1:47 PM EDT on July 30, 2016 (GMT -0400)
Brunswick | | Change Station

Elev 449 ft 42.73 °N, 73.59 °W | Updated 2 minutes ago

Mostly Cloudy
Mostly Cloudy
77.8 °F
Feels Like 79 °F
N
1.0
Wind Variable Wind from North
Gusts 2.0 mph

Today
High -- | Low -- °F
--% Chance of Precip.
Yesterday
High -- | Low -- °F
Precip. -- in
Pressure 30.06 in
Visibility 10.0 miles
Clouds Few 4500 ft
Few 9000 ft
Scattered Clouds 14000 ft
Mostly Cloudy 17000 ft
Mostly Cloudy 26000 ft
Heat Index 79 °F
Dew Point 62 °F
Humidity 58%
Rainfall 0.01 in
Snow Depth Not available.
5:44 AM 8:16 PM
Waning Crescent, 12% visible
METAR KALB 301651Z 35004KT 10SM FEW045 FEW090 SCT140 BKN170 BKN260 24/16 A3006 RMK AO2 SLP178 T02440161
Pressure 30.06 in
Visibility 10.0 miles
Clouds Few 4500 ft
Few 9000 ft
Scattered Clouds 14000 ft
Mostly Cloudy 17000 ft
Mostly Cloudy 26000 ft
Heat Index 79 °F
Dew Point 62 °F
Humidity 58%
Rainfall 0.01 in
Snow Depth Not available.
5:44 AM 8:16 PM
Waning Crescent, 12% visible
METAR KALB 301651Z 35004KT 10SM FEW045 FEW090 SCT140 BKN170 BKN260 24/16 A3006 RMK AO2 SLP178 T02440161

10-Day Weather Forecast

Almanac

Astronomy

Jul. 30, 2016 Rise Set
Actual Time
Civil Twilight
Nautical Twilight
Astronomical Twilight
Moon
Length of Visible Light
Length of Day
Tomorrow will be .
, % of the Moon is Illuminated

Today's Extremes

State Highs State Lows

Community

WunderPhotos

Upload Photos

1,928,600 photos uploaded!

WunderBlog® & News

Nearby

Air Quality

  Air Quality AQ Index Pollutant
Not available.

Snow Depth

Station Depth Elevation

Earthquake Activity

City Distance Mag. Time & Date
Minimum magnitude displayed is 2.5.

Coastal Water Temperatures

Place Temperature

Stations

Nearby Weather Stations

Station Location Temp. Windchill Dew Point Humidity Wind Precip. Elev Updated Type
                   

Watches & Warnings

There are currently no watches in effect.